sensor_id;sensor_type;location;lat;lon;timestamp;temperature;humidity
57552;DHT22;43379;48.160;14.036;2023-03-16T00:00:52;4.10;99.90
57552;DHT22;43379;48.160;14.036;2023-03-16T00:03:18;4.10;99.90
57552;DHT22;43379;48.160;14.036;2023-03-16T00:05:45;4.10;99.90
57552;DHT22;43379;48.160;14.036;2023-03-16T00:08:11;4.10;99.90
57552;DHT22;43379;48.160;14.036;2023-03-16T00:10:37;4.10;99.90
57552;DHT22;43379;48.160;14.036;2023-03-16T00:13:02;4.10;99.90
57552;DHT22;43379;48.160;14.036;2023-03-16T00:15:28;4.10;99.90
57552;DHT22;43379;48.160;14.036;2023-03-16T00:17:54;4.10;99.90
57552;DHT22;43379;48.160;14.036;2023-03-16T00:20:20;4.10;99.90
57552;DHT22;43379;48.160;14.036;2023-03-16T00:22:47;4.10;99.90
57552;DHT22;43379;48.160;14.036;2023-03-16T00:25:13;4.00;99.90
57552;DHT22;43379;48.160;14.036;2023-03-16T00:27:39;4.00;99.90
57552;DHT22;43379;48.160;14.036;2023-03-16T00:30:06;4.00;99.90
57552;DHT22;43379;48.160;14.036;2023-03-16T00:32:34;3.90;99.90
57552;DHT22;43379;48.160;14.036;2023-03-16T00:35:01;3.90;99.90
57552;DHT22;43379;48.160;14.036;2023-03-16T00:37:28;3.90;99.90
57552;DHT22;43379;48.160;14.036;2023-03-16T00:39:54;3.90;99.90
57552;DHT22;43379;48.160;14.036;2023-03-16T00:42:22;3.90;99.90
57552;DHT22;43379;48.160;14.036;2023-03-16T00:44:59;3.90;99.90
57552;DHT22;43379;48.160;14.036;2023-03-16T00:47:31;3.90;99.90
57552;DHT22;43379;48.160;14.036;2023-03-16T00:49:58;3.90;99.90
57552;DHT22;43379;48.160;14.036;2023-03-16T00:52:25;3.90;99.90
57552;DHT22;43379;48.160;14.036;2023-03-16T00:54:52;3.90;99.90
57552;DHT22;43379;48.160;14.036;2023-03-16T00:57:20;3.90;99.90
57552;DHT22;43379;48.160;14.036;2023-03-16T00:59:47;3.90;99.90
57552;DHT22;43379;48.160;14.036;2023-03-16T01:02:14;4.10;99.90
57552;DHT22;43379;48.160;14.036;2023-03-16T01:04:41;4.10;99.90
57552;DHT22;43379;48.160;14.036;2023-03-16T01:07:08;4.10;99.90
57552;DHT22;43379;48.160;14.036;2023-03-16T01:09:34;4.10;99.90
57552;DHT22;43379;48.160;14.036;2023-03-16T01:12:10;4.10;99.90
57552;DHT22;43379;48.160;14.036;2023-03-16T01:14:37;4.10;99.90
57552;DHT22;43379;48.160;14.036;2023-03-16T01:17:04;4.20;99.90
57552;DHT22;43379;48.160;14.036;2023-03-16T01:19:32;4.20;99.90
57552;DHT22;43379;48.160;14.036;2023-03-16T01:22:06;4.10;99.90
57552;DHT22;43379;48.160;14.036;2023-03-16T01:24:34;4.20;99.90
57552;DHT22;43379;48.160;14.036;2023-03-16T01:27:00;4.20;99.90
57552;DHT22;43379;48.160;14.036;2023-03-16T01:29:26;4.20;99.90
57552;DHT22;43379;48.160;14.036;2023-03-16T01:31:52;4.20;99.90
57552;DHT22;43379;48.160;14.036;2023-03-16T01:34:18;4.20;99.90
57552;DHT22;43379;48.160;14.036;2023-03-16T01:36:46;4.10;99.90
57552;DHT22;43379;48.160;14.036;2023-03-16T01:39:13;4.20;99.90
57552;DHT22;43379;48.160;14.036;2023-03-16T01:41:40;4.10;99.90
57552;DHT22;43379;48.160;14.036;2023-03-16T01:44:09;4.10;99.90
57552;DHT22;43379;48.160;14.036;2023-03-16T01:46:36;4.10;99.90
57552;DHT22;43379;48.160;14.036;2023-03-16T01:52:01;4.10;99.90
57552;DHT22;43379;48.160;14.036;2023-03-16T01:57:21;4.00;99.90
57552;DHT22;43379;48.160;14.036;2023-03-16T01:59:51;4.00;99.90
57552;DHT22;43379;48.160;14.036;2023-03-16T02:02:23;4.10;99.90
57552;DHT22;43379;48.160;14.036;2023-03-16T02:04:50;4.00;99.90
57552;DHT22;43379;48.160;14.036;2023-03-16T02:07:18;4.00;99.90
57552;DHT22;43379;48.160;14.036;2023-03-16T02:09:47;4.00;99.90
57552;DHT22;43379;48.160;14.036;2023-03-16T02:12:15;4.00;99.90
57552;DHT22;43379;48.160;14.036;2023-03-16T02:14:49;4.10;99.90
57552;DHT22;43379;48.160;14.036;2023-03-16T02:17:20;4.10;99.90
57552;DHT22;43379;48.160;14.036;2023-03-16T02:22:24;4.10;99.90
57552;DHT22;43379;48.160;14.036;2023-03-16T02:24:53;4.10;99.90
57552;DHT22;43379;48.160;14.036;2023-03-16T02:30:26;4.10;99.90
57552;DHT22;43379;48.160;14.036;2023-03-16T02:32:53;4.10;99.90
57552;DHT22;43379;48.160;14.036;2023-03-16T02:35:19;4.10;99.90
57552;DHT22;43379;48.160;14.036;2023-03-16T02:37:45;4.20;99.90
57552;DHT22;43379;48.160;14.036;2023-03-16T02:42:58;4.20;99.90
57552;DHT22;43379;48.160;14.036;2023-03-16T02:45:30;4.20;99.90
57552;DHT22;43379;48.160;14.036;2023-03-16T02:48:00;4.20;99.90
57552;DHT22;43379;48.160;14.036;2023-03-16T02:50:27;4.20;99.90
57552;DHT22;43379;48.160;14.036;2023-03-16T02:52:53;4.20;99.90
57552;DHT22;43379;48.160;14.036;2023-03-16T02:55:19;4.10;99.90
57552;DHT22;43379;48.160;14.036;2023-03-16T02:57:46;4.00;99.90
57552;DHT22;43379;48.160;14.036;2023-03-16T03:00:12;4.00;99.90
57552;DHT22;43379;48.160;14.036;2023-03-16T03:02:44;3.90;99.90
57552;DHT22;43379;48.160;14.036;2023-03-16T03:05:10;3.90;99.90
57552;DHT22;43379;48.160;14.036;2023-03-16T03:07:37;3.90;99.90
57552;DHT22;43379;48.160;14.036;2023-03-16T03:10:04;3.90;99.90
57552;DHT22;43379;48.160;14.036;2023-03-16T03:12:31;3.80;99.90
57552;DHT22;43379;48.160;14.036;2023-03-16T03:14:57;3.80;99.90
57552;DHT22;43379;48.160;14.036;2023-03-16T03:17:23;3.80;99.90
57552;DHT22;43379;48.160;14.036;2023-03-16T03:19:55;3.80;99.90
57552;DHT22;43379;48.160;14.036;2023-03-16T03:22:21;3.90;99.90
57552;DHT22;43379;48.160;14.036;2023-03-16T03:24:46;3.90;99.90
57552;DHT22;43379;48.160;14.036;2023-03-16T03:27:12;3.90;99.90
57552;DHT22;43379;48.160;14.036;2023-03-16T03:29:38;3.90;99.90
57552;DHT22;43379;48.160;14.036;2023-03-16T03:32:04;3.80;99.90
57552;DHT22;43379;48.160;14.036;2023-03-16T03:34:30;3.70;99.90
57552;DHT22;43379;48.160;14.036;2023-03-16T03:36:56;3.70;99.90
57552;DHT22;43379;48.160;14.036;2023-03-16T03:39:22;3.70;99.90
57552;DHT22;43379;48.160;14.036;2023-03-16T03:41:48;3.60;99.90
57552;DHT22;43379;48.160;14.036;2023-03-16T03:44:13;3.70;99.90
57552;DHT22;43379;48.160;14.036;2023-03-16T03:46:39;3.70;99.90
57552;DHT22;43379;48.160;14.036;2023-03-16T03:49:05;3.70;99.90
57552;DHT22;43379;48.160;14.036;2023-03-16T03:51:31;3.60;99.90
57552;DHT22;43379;48.160;14.036;2023-03-16T03:53:58;3.60;99.90
57552;DHT22;43379;48.160;14.036;2023-03-16T03:56:24;3.70;99.90
57552;DHT22;43379;48.160;14.036;2023-03-16T03:58:50;3.70;99.90
57552;DHT22;43379;48.160;14.036;2023-03-16T04:01:16;3.70;99.90
57552;DHT22;43379;48.160;14.036;2023-03-16T04:03:42;3.70;99.90
57552;DHT22;43379;48.160;14.036;2023-03-16T04:06:07;3.60;99.90
57552;DHT22;43379;48.160;14.036;2023-03-16T04:08:34;3.60;99.90
57552;DHT22;43379;48.160;14.036;2023-03-16T04:10:59;3.60;99.90
57552;DHT22;43379;48.160;14.036;2023-03-16T04:13:26;3.50;99.90
57552;DHT22;43379;48.160;14.036;2023-03-16T04:15:56;3.50;99.90
57552;DHT22;43379;48.160;14.036;2023-03-16T04:18:22;3.40;99.90
57552;DHT22;43379;48.160;14.036;2023-03-16T04:20:48;3.40;99.90
57552;DHT22;43379;48.160;14.036;2023-03-16T04:23:14;3.50;99.90
57552;DHT22;43379;48.160;14.036;2023-03-16T04:25:41;3.50;99.90
57552;DHT22;43379;48.160;14.036;2023-03-16T04:28:07;3.50;99.90
57552;DHT22;43379;48.160;14.036;2023-03-16T04:30:33;3.40;99.90
57552;DHT22;43379;48.160;14.036;2023-03-16T04:32:59;3.40;99.90
57552;DHT22;43379;48.160;14.036;2023-03-16T04:35:25;3.40;99.90
57552;DHT22;43379;48.160;14.036;2023-03-16T04:37:50;3.40;99.90
57552;DHT22;43379;48.160;14.036;2023-03-16T04:40:16;3.30;99.90
57552;DHT22;43379;48.160;14.036;2023-03-16T04:42:45;3.30;99.90
57552;DHT22;43379;48.160;14.036;2023-03-16T04:45:11;3.30;99.90
57552;DHT22;43379;48.160;14.036;2023-03-16T04:47:38;3.20;99.90
57552;DHT22;43379;48.160;14.036;2023-03-16T04:50:04;3.20;99.90
57552;DHT22;43379;48.160;14.036;2023-03-16T04:52:30;3.10;99.90
57552;DHT22;43379;48.160;14.036;2023-03-16T04:54:57;3.10;99.90
57552;DHT22;43379;48.160;14.036;2023-03-16T04:57:23;3.10;99.90
57552;DHT22;43379;48.160;14.036;2023-03-16T04:59:49;3.10;99.90
57552;DHT22;43379;48.160;14.036;2023-03-16T05:02:15;3.10;99.90
57552;DHT22;43379;48.160;14.036;2023-03-16T05:04:42;3.10;99.90
57552;DHT22;43379;48.160;14.036;2023-03-16T05:07:08;3.00;99.90
57552;DHT22;43379;48.160;14.036;2023-03-16T05:09:33;3.00;99.90
57552;DHT22;43379;48.160;14.036;2023-03-16T05:11:59;3.00;99.90
57552;DHT22;43379;48.160;14.036;2023-03-16T05:14:25;2.90;99.90
57552;DHT22;43379;48.160;14.036;2023-03-16T05:16:50;2.90;99.90
57552;DHT22;43379;48.160;14.036;2023-03-16T05:19:17;2.90;99.90
57552;DHT22;43379;48.160;14.036;2023-03-16T05:21:43;3.00;99.90
57552;DHT22;43379;48.160;14.036;2023-03-16T05:24:10;2.90;99.90
57552;DHT22;43379;48.160;14.036;2023-03-16T05:26:37;3.00;99.90
57552;DHT22;43379;48.160;14.036;2023-03-16T05:29:03;3.00;99.90
57552;DHT22;43379;48.160;14.036;2023-03-16T05:31:29;3.10;99.90
57552;DHT22;43379;48.160;14.036;2023-03-16T05:33:58;3.10;99.90
57552;DHT22;43379;48.160;14.036;2023-03-16T05:36:24;3.10;99.90
57552;DHT22;43379;48.160;14.036;2023-03-16T05:38:50;3.20;99.90
57552;DHT22;43379;48.160;14.036;2023-03-16T05:41:16;3.20;99.90
57552;DHT22;43379;48.160;14.036;2023-03-16T05:43:43;3.30;99.90
57552;DHT22;43379;48.160;14.036;2023-03-16T05:46:09;3.30;99.90
57552;DHT22;43379;48.160;14.036;2023-03-16T05:48:35;3.40;99.90
57552;DHT22;43379;48.160;14.036;2023-03-16T05:51:01;3.50;99.90
57552;DHT22;43379;48.160;14.036;2023-03-16T05:53:31;3.50;99.90
57552;DHT22;43379;48.160;14.036;2023-03-16T05:55:56;3.50;99.90
57552;DHT22;43379;48.160;14.036;2023-03-16T05:58:22;3.40;99.90
57552;DHT22;43379;48.160;14.036;2023-03-16T06:00:48;3.60;99.90
57552;DHT22;43379;48.160;14.036;2023-03-16T06:03:15;3.70;99.90
57552;DHT22;43379;48.160;14.036;2023-03-16T06:05:41;3.70;99.90
57552;DHT22;43379;48.160;14.036;2023-03-16T06:08:07;3.80;99.90
57552;DHT22;43379;48.160;14.036;2023-03-16T06:10:34;3.90;99.90
57552;DHT22;43379;48.160;14.036;2023-03-16T06:13:00;4.00;99.90
57552;DHT22;43379;48.160;14.036;2023-03-16T06:15:25;4.10;99.90
57552;DHT22;43379;48.160;14.036;2023-03-16T06:17:54;4.10;99.90
57552;DHT22;43379;48.160;14.036;2023-03-16T06:20:19;4.20;99.90
57552;DHT22;43379;48.160;14.036;2023-03-16T06:22:46;4.20;99.90
57552;DHT22;43379;48.160;14.036;2023-03-16T06:25:12;4.30;99.90
57552;DHT22;43379;48.160;14.036;2023-03-16T06:27:38;4.30;99.90
57552;DHT22;43379;48.160;14.036;2023-03-16T06:30:10;4.40;99.90
57552;DHT22;43379;48.160;14.036;2023-03-16T06:32:37;4.40;99.90
57552;DHT22;43379;48.160;14.036;2023-03-16T06:35:04;4.40;99.90
57552;DHT22;43379;48.160;14.036;2023-03-16T06:37:30;4.30;99.90
57552;DHT22;43379;48.160;14.036;2023-03-16T06:39:56;4.30;99.90
57552;DHT22;43379;48.160;14.036;2023-03-16T06:42:22;4.30;99.90
57552;DHT22;43379;48.160;14.036;2023-03-16T06:44:48;4.30;99.90
57552;DHT22;43379;48.160;14.036;2023-03-16T06:47:14;4.30;99.90
57552;DHT22;43379;48.160;14.036;2023-03-16T06:49:39;4.30;99.90
57552;DHT22;43379;48.160;14.036;2023-03-16T06:52:05;4.40;99.90
57552;DHT22;43379;48.160;14.036;2023-03-16T06:54:31;5.10;99.90
57552;DHT22;43379;48.160;14.036;2023-03-16T06:56:59;6.70;99.90
57552;DHT22;43379;48.160;14.036;2023-03-16T06:59:25;8.40;99.90
57552;DHT22;43379;48.160;14.036;2023-03-16T07:01:51;9.90;99.90
57552;DHT22;43379;48.160;14.036;2023-03-16T07:04:17;11.10;99.90
57552;DHT22;43379;48.160;14.036;2023-03-16T07:06:42;12.30;97.80
57552;DHT22;43379;48.160;14.036;2023-03-16T07:09:08;13.10;95.50
57552;DHT22;43379;48.160;14.036;2023-03-16T07:11:34;14.10;93.20
57552;DHT22;43379;48.160;14.036;2023-03-16T07:13:59;14.90;91.50
57552;DHT22;43379;48.160;14.036;2023-03-16T07:16:26;15.40;88.60
57552;DHT22;43379;48.160;14.036;2023-03-16T07:18:52;15.90;83.80
57552;DHT22;43379;48.160;14.036;2023-03-16T07:21:17;16.60;86.00
57552;DHT22;43379;48.160;14.036;2023-03-16T07:23:43;17.10;78.20
57552;DHT22;43379;48.160;14.036;2023-03-16T07:26:09;17.70;76.30
57552;DHT22;43379;48.160;14.036;2023-03-16T07:28:37;18.30;71.70
57552;DHT22;43379;48.160;14.036;2023-03-16T07:31:04;18.70;69.60
57552;DHT22;43379;48.160;14.036;2023-03-16T07:33:33;19.00;70.40
57552;DHT22;43379;48.160;14.036;2023-03-16T07:35:59;19.40;68.70
57552;DHT22;43379;48.160;14.036;2023-03-16T07:38:28;20.20;64.80
57552;DHT22;43379;48.160;14.036;2023-03-16T07:40:54;20.90;63.50
57552;DHT22;43379;48.160;14.036;2023-03-16T07:43:20;20.70;60.90
57552;DHT22;43379;48.160;14.036;2023-03-16T07:45:49;20.40;60.00
57552;DHT22;43379;48.160;14.036;2023-03-16T07:48:16;20.70;60.90
57552;DHT22;43379;48.160;14.036;2023-03-16T07:50:42;21.10;59.30
57552;DHT22;43379;48.160;14.036;2023-03-16T07:53:08;20.40;59.50
57552;DHT22;43379;48.160;14.036;2023-03-16T07:55:34;21.00;59.30
57552;DHT22;43379;48.160;14.036;2023-03-16T07:58:01;21.80;58.80
57552;DHT22;43379;48.160;14.036;2023-03-16T08:00:27;21.50;55.70
57552;DHT22;43379;48.160;14.036;2023-03-16T08:02:52;21.40;55.20
57552;DHT22;43379;48.160;14.036;2023-03-16T08:05:27;19.70;56.20
57552;DHT22;43379;48.160;14.036;2023-03-16T08:07:53;18.90;57.70
57552;DHT22;43379;48.160;14.036;2023-03-16T08:10:20;18.60;59.70
57552;DHT22;43379;48.160;14.036;2023-03-16T08:12:46;18.70;58.90
57552;DHT22;43379;48.160;14.036;2023-03-16T08:15:12;19.00;57.80
57552;DHT22;43379;48.160;14.036;2023-03-16T08:17:37;19.20;59.30
57552;DHT22;43379;48.160;14.036;2023-03-16T08:20:06;19.90;57.50
57552;DHT22;43379;48.160;14.036;2023-03-16T08:22:38;20.50;58.40
57552;DHT22;43379;48.160;14.036;2023-03-16T08:25:05;20.50;56.80
57552;DHT22;43379;48.160;14.036;2023-03-16T08:27:32;20.40;56.50
57552;DHT22;43379;48.160;14.036;2023-03-16T08:29:58;20.40;56.80
57552;DHT22;43379;48.160;14.036;2023-03-16T08:32:29;21.10;55.60
57552;DHT22;43379;48.160;14.036;2023-03-16T08:34:55;21.60;55.40
57552;DHT22;43379;48.160;14.036;2023-03-16T08:37:21;22.40;53.50
57552;DHT22;43379;48.160;14.036;2023-03-16T08:39:48;22.20;53.40
57552;DHT22;43379;48.160;14.036;2023-03-16T08:42:16;23.40;53.10
57552;DHT22;43379;48.160;14.036;2023-03-16T08:44:42;23.60;51.20
57552;DHT22;43379;48.160;14.036;2023-03-16T08:47:08;24.70;49.80
57552;DHT22;43379;48.160;14.036;2023-03-16T08:49:35;24.60;49.60
57552;DHT22;43379;48.160;14.036;2023-03-16T08:52:02;23.90;49.50
57552;DHT22;43379;48.160;14.036;2023-03-16T08:54:27;23.70;48.20
57552;DHT22;43379;48.160;14.036;2023-03-16T08:56:53;23.70;48.60
57552;DHT22;43379;48.160;14.036;2023-03-16T08:59:19;24.40;48.90
57552;DHT22;43379;48.160;14.036;2023-03-16T09:01:44;25.00;48.70
57552;DHT22;43379;48.160;14.036;2023-03-16T09:04:11;24.30;46.80
57552;DHT22;43379;48.160;14.036;2023-03-16T09:06:37;24.00;47.70
57552;DHT22;43379;48.160;14.036;2023-03-16T09:09:03;24.00;47.30
57552;DHT22;43379;48.160;14.036;2023-03-16T09:11:29;23.50;45.50
57552;DHT22;43379;48.160;14.036;2023-03-16T09:13:58;23.90;46.30
57552;DHT22;43379;48.160;14.036;2023-03-16T09:16:25;23.10;45.20
57552;DHT22;43379;48.160;14.036;2023-03-16T09:18:51;22.60;45.10
57552;DHT22;43379;48.160;14.036;2023-03-16T09:21:18;22.50;46.00
57552;DHT22;43379;48.160;14.036;2023-03-16T09:23:44;22.70;46.00
57552;DHT22;43379;48.160;14.036;2023-03-16T09:26:10;23.00;45.80
57552;DHT22;43379;48.160;14.036;2023-03-16T09:28:37;23.00;45.60
57552;DHT22;43379;48.160;14.036;2023-03-16T09:31:04;23.50;46.60
57552;DHT22;43379;48.160;14.036;2023-03-16T09:33:30;23.00;43.50
57552;DHT22;43379;48.160;14.036;2023-03-16T09:35:59;22.40;45.40
57552;DHT22;43379;48.160;14.036;2023-03-16T09:38:25;22.30;46.40
57552;DHT22;43379;48.160;14.036;2023-03-16T09:41:23;22.30;45.30
57552;DHT22;43379;48.160;14.036;2023-03-16T09:44:22;21.60;45.50
57552;DHT22;43379;48.160;14.036;2023-03-16T09:46:52;21.70;45.30
57552;DHT22;43379;48.160;14.036;2023-03-16T09:49:20;20.90;46.90
57552;DHT22;43379;48.160;14.036;2023-03-16T09:54:48;20.90;48.30
57552;DHT22;43379;48.160;14.036;2023-03-16T09:57:30;20.90;48.70
57552;DHT22;43379;48.160;14.036;2023-03-16T09:59:59;20.90;47.80
57552;DHT22;43379;48.160;14.036;2023-03-16T10:05:19;20.30;48.50
57552;DHT22;43379;48.160;14.036;2023-03-16T10:07:49;20.00;49.10
57552;DHT22;43379;48.160;14.036;2023-03-16T10:13:26;18.80;49.00
57552;DHT22;43379;48.160;14.036;2023-03-16T10:15:55;17.60;47.60
57552;DHT22;43379;48.160;14.036;2023-03-16T10:18:27;16.40;48.30
57552;DHT22;43379;48.160;14.036;2023-03-16T10:20:57;15.70;50.10
57552;DHT22;43379;48.160;14.036;2023-03-16T10:23:25;15.50;51.50
57552;DHT22;43379;48.160;14.036;2023-03-16T10:25:55;14.70;51.60
57552;DHT22;43379;48.160;14.036;2023-03-16T10:28:25;14.50;52.30
57552;DHT22;43379;48.160;14.036;2023-03-16T10:30:54;14.20;53.10
57552;DHT22;43379;48.160;14.036;2023-03-16T10:33:31;13.70;53.60
57552;DHT22;43379;48.160;14.036;2023-03-16T10:38:38;12.80;54.90
57552;DHT22;43379;48.160;14.036;2023-03-16T10:44:07;12.50;55.30
57552;DHT22;43379;48.160;14.036;2023-03-16T10:46:42;12.10;55.40
57552;DHT22;43379;48.160;14.036;2023-03-16T10:49:23;12.20;56.10
57552;DHT22;43379;48.160;14.036;2023-03-16T10:51:55;12.00;54.60
57552;DHT22;43379;48.160;14.036;2023-03-16T10:54:36;11.80;56.60
57552;DHT22;43379;48.160;14.036;2023-03-16T10:57:22;11.80;58.20
57552;DHT22;43379;48.160;14.036;2023-03-16T10:59:51;12.00;60.30
57552;DHT22;43379;48.160;14.036;2023-03-16T11:02:21;11.80;59.00
57552;DHT22;43379;48.160;14.036;2023-03-16T11:04:48;11.70;58.70
57552;DHT22;43379;48.160;14.036;2023-03-16T11:07:16;11.90;58.00
57552;DHT22;43379;48.160;14.036;2023-03-16T11:09:43;11.80;58.20
57552;DHT22;43379;48.160;14.036;2023-03-16T11:12:35;11.60;57.60
57552;DHT22;43379;48.160;14.036;2023-03-16T11:15:03;12.00;59.70
57552;DHT22;43379;48.160;14.036;2023-03-16T11:17:50;11.80;56.70
57552;DHT22;43379;48.160;14.036;2023-03-16T11:20:21;12.00;57.80
57552;DHT22;43379;48.160;14.036;2023-03-16T11:22:48;11.90;57.30
57552;DHT22;43379;48.160;14.036;2023-03-16T11:25:28;12.20;58.40
57552;DHT22;43379;48.160;14.036;2023-03-16T11:30:37;11.80;56.70
57552;DHT22;43379;48.160;14.036;2023-03-16T11:33:08;12.00;58.10
57552;DHT22;43379;48.160;14.036;2023-03-16T11:40:37;12.00;58.30
57552;DHT22;43379;48.160;14.036;2023-03-16T11:43:46;11.60;57.70
57552;DHT22;43379;48.160;14.036;2023-03-16T11:46:22;11.20;57.20
57552;DHT22;43379;48.160;14.036;2023-03-16T11:57:25;11.00;58.80
57552;DHT22;43379;48.160;14.036;2023-03-16T12:02:53;11.00;58.50
57552;DHT22;43379;48.160;14.036;2023-03-16T12:08:11;11.00;59.30
57552;DHT22;43379;48.160;14.036;2023-03-16T12:13:43;11.00;60.70
57552;DHT22;43379;48.160;14.036;2023-03-16T12:16:21;11.20;62.80
57552;DHT22;43379;48.160;14.036;2023-03-16T12:23:51;11.20;59.60
57552;DHT22;43379;48.160;14.036;2023-03-16T12:26:20;10.90;59.40
57552;DHT22;43379;48.160;14.036;2023-03-16T12:28:47;11.00;58.50
57552;DHT22;43379;48.160;14.036;2023-03-16T12:31:18;10.90;59.20
57552;DHT22;43379;48.160;14.036;2023-03-16T12:44:08;10.80;59.90
57552;DHT22;43379;48.160;14.036;2023-03-16T12:49:25;11.00;59.40
57552;DHT22;43379;48.160;14.036;2023-03-16T12:52:05;10.70;58.50
57552;DHT22;43379;48.160;14.036;2023-03-16T12:54:32;10.80;59.00
57552;DHT22;43379;48.160;14.036;2023-03-16T12:57:06;11.10;61.50
57552;DHT22;43379;48.160;14.036;2023-03-16T12:59:38;11.10;59.40
57552;DHT22;43379;48.160;14.036;2023-03-16T13:02:13;10.70;58.00
57552;DHT22;43379;48.160;14.036;2023-03-16T13:04:41;10.60;58.50
57552;DHT22;43379;48.160;14.036;2023-03-16T13:07:16;10.40;58.80
57552;DHT22;43379;48.160;14.036;2023-03-16T13:09:50;10.60;58.40
57552;DHT22;43379;48.160;14.036;2023-03-16T13:12:31;10.80;59.30
57552;DHT22;43379;48.160;14.036;2023-03-16T13:15:02;10.90;58.90
57552;DHT22;43379;48.160;14.036;2023-03-16T13:17:41;10.90;58.90
57552;DHT22;43379;48.160;14.036;2023-03-16T13:20:26;11.10;58.70
57552;DHT22;43379;48.160;14.036;2023-03-16T13:26:14;11.20;57.90
57552;DHT22;43379;48.160;14.036;2023-03-16T13:28:41;11.00;57.70
57552;DHT22;43379;48.160;14.036;2023-03-16T13:31:31;11.00;57.50
57552;DHT22;43379;48.160;14.036;2023-03-16T13:33:59;11.10;58.30
57552;DHT22;43379;48.160;14.036;2023-03-16T13:36:28;11.00;57.10
57552;DHT22;43379;48.160;14.036;2023-03-16T13:41:38;11.00;57.90
57552;DHT22;43379;48.160;14.036;2023-03-16T13:44:13;11.20;59.10
57552;DHT22;43379;48.160;14.036;2023-03-16T13:46:39;11.10;56.50
57552;DHT22;43379;48.160;14.036;2023-03-16T13:49:05;10.90;56.30
57552;DHT22;43379;48.160;14.036;2023-03-16T13:51:33;10.90;56.60
57552;DHT22;43379;48.160;14.036;2023-03-16T13:54:24;10.70;55.90
57552;DHT22;43379;48.160;14.036;2023-03-16T13:57:01;10.60;56.80
57552;DHT22;43379;48.160;14.036;2023-03-16T13:59:28;10.70;57.60
57552;DHT22;43379;48.160;14.036;2023-03-16T14:02:14;10.70;56.80
57552;DHT22;43379;48.160;14.036;2023-03-16T14:04:41;10.70;57.10
57552;DHT22;43379;48.160;14.036;2023-03-16T14:07:14;10.50;55.80
57552;DHT22;43379;48.160;14.036;2023-03-16T14:09:43;10.50;56.60
57552;DHT22;43379;48.160;14.036;2023-03-16T14:12:16;10.60;56.70
57552;DHT22;43379;48.160;14.036;2023-03-16T14:14:45;10.60;56.20
57552;DHT22;43379;48.160;14.036;2023-03-16T14:17:21;10.60;56.70
57552;DHT22;43379;48.160;14.036;2023-03-16T14:19:58;10.60;55.90
57552;DHT22;43379;48.160;14.036;2023-03-16T14:22:36;10.60;56.80
57552;DHT22;43379;48.160;14.036;2023-03-16T14:25:03;10.60;56.50
57552;DHT22;43379;48.160;14.036;2023-03-16T14:30:17;10.60;56.50
57552;DHT22;43379;48.160;14.036;2023-03-16T14:33:05;10.50;56.90
57552;DHT22;43379;48.160;14.036;2023-03-16T14:35:43;10.50;57.60
57552;DHT22;43379;48.160;14.036;2023-03-16T14:38:31;10.10;56.20
57552;DHT22;43379;48.160;14.036;2023-03-16T14:43:36;10.10;57.60
57552;DHT22;43379;48.160;14.036;2023-03-16T14:46:04;10.00;57.50
57552;DHT22;43379;48.160;14.036;2023-03-16T14:48:31;10.20;58.50
57552;DHT22;43379;48.160;14.036;2023-03-16T14:51:00;10.30;57.30
57552;DHT22;43379;48.160;14.036;2023-03-16T14:53:27;10.40;58.10
57552;DHT22;43379;48.160;14.036;2023-03-16T14:55:56;10.40;57.70
57552;DHT22;43379;48.160;14.036;2023-03-16T14:58:22;10.40;57.10
57552;DHT22;43379;48.160;14.036;2023-03-16T15:00:49;10.30;57.00
57552;DHT22;43379;48.160;14.036;2023-03-16T15:03:21;10.30;56.90
57552;DHT22;43379;48.160;14.036;2023-03-16T15:05:49;10.50;56.50
57552;DHT22;43379;48.160;14.036;2023-03-16T15:08:24;10.30;55.80
57552;DHT22;43379;48.160;14.036;2023-03-16T15:10:52;10.10;55.90
57552;DHT22;43379;48.160;14.036;2023-03-16T15:13:20;10.10;56.30
57552;DHT22;43379;48.160;14.036;2023-03-16T15:16:03;9.90;57.00
57552;DHT22;43379;48.160;14.036;2023-03-16T15:18:33;9.90;57.50
57552;DHT22;43379;48.160;14.036;2023-03-16T15:21:00;9.80;56.90
57552;DHT22;43379;48.160;14.036;2023-03-16T15:23:27;9.80;56.90
57552;DHT22;43379;48.160;14.036;2023-03-16T15:25:53;9.70;56.80
57552;DHT22;43379;48.160;14.036;2023-03-16T15:28:25;9.80;56.90
57552;DHT22;43379;48.160;14.036;2023-03-16T15:30:56;9.90;56.50
57552;DHT22;43379;48.160;14.036;2023-03-16T15:33:23;9.90;56.70
57552;DHT22;43379;48.160;14.036;2023-03-16T15:35:50;9.90;57.00
57552;DHT22;43379;48.160;14.036;2023-03-16T15:38:22;9.90;56.70
57552;DHT22;43379;48.160;14.036;2023-03-16T15:40:49;9.90;56.10
57552;DHT22;43379;48.160;14.036;2023-03-16T15:43:21;9.70;55.90
57552;DHT22;43379;48.160;14.036;2023-03-16T15:45:50;9.60;55.90
57552;DHT22;43379;48.160;14.036;2023-03-16T15:48:19;9.50;56.00
57552;DHT22;43379;48.160;14.036;2023-03-16T15:51:00;9.60;56.20
57552;DHT22;43379;48.160;14.036;2023-03-16T15:53:34;9.60;56.30
57552;DHT22;43379;48.160;14.036;2023-03-16T15:56:10;9.60;56.60
57552;DHT22;43379;48.160;14.036;2023-03-16T15:58:40;9.70;56.20
57552;DHT22;43379;48.160;14.036;2023-03-16T16:01:06;9.60;56.00
57552;DHT22;43379;48.160;14.036;2023-03-16T16:03:33;9.60;55.50
57552;DHT22;43379;48.160;14.036;2023-03-16T16:05:59;9.50;55.60
57552;DHT22;43379;48.160;14.036;2023-03-16T16:08:25;9.50;55.50
57552;DHT22;43379;48.160;14.036;2023-03-16T16:10:51;9.60;55.40
57552;DHT22;43379;48.160;14.036;2023-03-16T16:13:24;9.60;55.20
57552;DHT22;43379;48.160;14.036;2023-03-16T16:15:52;9.60;55.40
57552;DHT22;43379;48.160;14.036;2023-03-16T16:20:47;9.50;54.60
57552;DHT22;43379;48.160;14.036;2023-03-16T16:23:12;9.50;55.10
57552;DHT22;43379;48.160;14.036;2023-03-16T16:25:39;9.50;55.30
57552;DHT22;43379;48.160;14.036;2023-03-16T16:28:18;9.30;54.80
57552;DHT22;43379;48.160;14.036;2023-03-16T16:30:45;9.20;54.30
57552;DHT22;43379;48.160;14.036;2023-03-16T16:33:26;9.20;54.20
57552;DHT22;43379;48.160;14.036;2023-03-16T16:35:53;9.20;54.60
57552;DHT22;43379;48.160;14.036;2023-03-16T16:38:20;9.30;54.50
57552;DHT22;43379;48.160;14.036;2023-03-16T16:40:47;9.20;54.70
57552;DHT22;43379;48.160;14.036;2023-03-16T16:46:00;9.10;54.70
57552;DHT22;43379;48.160;14.036;2023-03-16T16:48:34;9.10;55.10
57552;DHT22;43379;48.160;14.036;2023-03-16T16:51:01;9.00;55.10
57552;DHT22;43379;48.160;14.036;2023-03-16T16:53:27;9.00;55.30
57552;DHT22;43379;48.160;14.036;2023-03-16T16:55:54;9.00;55.60
57552;DHT22;43379;48.160;14.036;2023-03-16T16:58:20;8.90;55.40
57552;DHT22;43379;48.160;14.036;2023-03-16T17:00:50;8.90;55.60
57552;DHT22;43379;48.160;14.036;2023-03-16T17:03:28;8.90;55.50